createdAt,value
2018-08-13T00:01:52.001Z,1.60
2018-08-13T00:04:20.175Z,1.80
2018-08-13T00:06:49.298Z,1.37
2018-08-13T00:09:49.629Z,1.60
2018-08-13T00:12:17.943Z,1.47
2018-08-13T00:14:46.248Z,1.23
2018-08-13T00:17:16.435Z,1.77
2018-08-13T00:19:44.587Z,1.50
2018-08-13T00:22:13.031Z,1.27
2018-08-13T00:24:41.652Z,1.57
2018-08-13T00:27:09.951Z,1.97
2018-08-13T00:29:38.331Z,1.80
2018-08-13T00:32:06.469Z,1.73
2018-08-13T00:34:34.643Z,1.80
2018-08-13T00:37:02.803Z,1.70
2018-08-13T00:39:31.428Z,1.60
2018-08-13T00:42:00.945Z,1.80
2018-08-13T00:44:29.718Z,1.60
2018-08-13T00:46:58.219Z,1.63
2018-08-13T00:49:26.425Z,1.33
2018-08-13T00:51:54.679Z,1.60
2018-08-13T00:54:22.902Z,1.60
2018-08-13T00:56:51.078Z,1.40
2018-08-13T00:59:20.879Z,1.70
2018-08-13T01:01:49.061Z,1.60
2018-08-13T01:04:17.229Z,1.47
2018-08-13T01:06:46.456Z,1.50
2018-08-13T01:09:14.913Z,1.60
2018-08-13T01:11:43.131Z,1.40
2018-08-13T01:14:12.452Z,1.50
2018-08-13T01:16:41.426Z,1.90
2018-08-13T01:19:09.812Z,1.60
2018-08-13T01:21:38.942Z,1.30
2018-08-13T01:24:08.093Z,1.50
2018-08-13T01:26:36.914Z,1.70
2018-08-13T01:29:05.825Z,1.80
2018-08-13T01:31:34.445Z,1.30
2018-08-13T01:34:02.684Z,1.60
2018-08-13T01:36:31.828Z,1.73
2018-08-13T01:39:00.303Z,1.47
2018-08-13T01:41:29.173Z,1.30
2018-08-13T01:43:59.037Z,1.40
2018-08-13T01:46:28.173Z,1.10
2018-08-13T01:48:57.025Z,1.80
2018-08-13T01:51:26.425Z,1.30
2018-08-13T01:53:55.595Z,1.50
2018-08-13T01:56:24.248Z,1.80
2018-08-13T01:58:53.066Z,1.90
2018-08-13T02:01:21.729Z,1.67
2018-08-13T02:03:49.965Z,1.80
2018-08-13T02:06:18.292Z,1.90
2018-08-13T02:08:46.517Z,1.63
2018-08-13T02:11:14.958Z,1.67
2018-08-13T02:13:43.379Z,2.13
2018-08-13T02:16:11.781Z,1.43
2018-08-13T02:18:46.705Z,1.80
2018-08-13T02:21:14.923Z,1.50
2018-08-13T02:23:44.127Z,1.73
2018-08-13T02:26:12.601Z,1.80
2018-08-13T02:28:40.862Z,1.60
2018-08-13T02:31:09.384Z,1.80
2018-08-13T02:33:37.571Z,1.33
2018-08-13T02:36:06.085Z,1.87
2018-08-13T02:38:34.479Z,1.57
2018-08-13T02:41:03.042Z,1.80
2018-08-13T02:43:31.277Z,1.90
2018-08-13T02:45:59.520Z,1.60
2018-08-13T02:48:27.768Z,1.60
2018-08-13T02:50:56.299Z,1.53
2018-08-13T02:53:24.464Z,1.50
2018-08-13T02:55:55.998Z,1.57
2018-08-13T02:58:24.216Z,1.40
2018-08-13T03:00:52.574Z,1.57
2018-08-13T03:03:20.752Z,1.83
2018-08-13T03:05:49.144Z,1.70
2018-08-13T03:08:17.404Z,1.60
2018-08-13T03:10:45.626Z,1.47
2018-08-13T03:13:13.828Z,1.70
2018-08-13T03:15:42.022Z,1.60
2018-08-13T03:18:10.300Z,1.47
2018-08-13T03:20:38.746Z,1.80
2018-08-13T03:23:07.458Z,1.70
2018-08-13T03:25:35.834Z,1.80
2018-08-13T03:28:04.112Z,1.93
2018-08-13T03:30:33.092Z,2.00
2018-08-13T03:33:01.385Z,1.80
2018-08-13T03:35:30.650Z,2.00
2018-08-13T03:37:59.160Z,1.97
2018-08-13T03:40:28.491Z,2.20
2018-08-13T03:42:56.722Z,2.00
2018-08-13T03:45:25.215Z,2.10
2018-08-13T03:47:53.754Z,2.20
2018-08-13T03:50:22.130Z,2.00
2018-08-13T03:52:50.396Z,2.30
2018-08-13T03:55:18.839Z,2.10
2018-08-13T03:57:47.270Z,1.80
2018-08-13T04:00:16.133Z,1.73
2018-08-13T04:02:44.675Z,2.00
2018-08-13T04:05:13.905Z,1.97
2018-08-13T04:07:42.214Z,2.03
2018-08-13T04:10:12.007Z,2.20
2018-08-13T04:12:41.787Z,2.00
2018-08-13T04:15:11.544Z,2.20
2018-08-13T04:17:39.825Z,2.50
2018-08-13T04:20:10.493Z,2.30
2018-08-13T04:22:38.777Z,2.37
2018-08-13T04:25:08.314Z,1.93
2018-08-13T04:27:36.897Z,2.07
2018-08-13T04:30:12.978Z,2.27
2018-08-13T04:32:42.141Z,2.30
2018-08-13T04:35:10.549Z,1.87
2018-08-13T04:37:39.615Z,1.90
2018-08-13T04:40:10.727Z,2.03
2018-08-13T04:42:39.288Z,2.10
2018-08-13T04:45:08.252Z,1.90
2018-08-13T04:47:36.648Z,2.10
2018-08-13T04:50:07.422Z,2.57
2018-08-13T04:52:36.164Z,2.10
2018-08-13T04:55:06.501Z,2.17
2018-08-13T04:57:36.210Z,2.13
2018-08-13T05:00:06.308Z,2.40
2018-08-13T05:02:34.721Z,2.30
2018-08-13T05:05:03.858Z,2.20
2018-08-13T05:07:32.418Z,2.07
2018-08-13T05:10:00.741Z,1.90
2018-08-13T05:12:29.284Z,2.27
2018-08-13T05:14:57.666Z,2.10
2018-08-13T05:17:27.156Z,2.50
2018-08-13T05:19:55.344Z,2.03
2018-08-13T05:22:23.579Z,2.10
2018-08-13T05:24:51.830Z,2.30
2018-08-13T05:27:20.374Z,2.00
2018-08-13T05:29:48.580Z,2.17
2018-08-13T05:32:16.842Z,1.77
2018-08-13T05:34:45.069Z,2.47
2018-08-13T05:37:13.337Z,2.10
2018-08-13T05:39:42.958Z,2.10
2018-08-13T05:42:12.543Z,2.07
2018-08-13T05:44:40.773Z,2.43
2018-08-13T05:47:09.083Z,2.43
2018-08-13T05:49:37.299Z,2.57
2018-08-13T05:52:05.723Z,2.23
2018-08-13T05:54:33.947Z,2.27
2018-08-13T05:57:02.221Z,2.30
2018-08-13T05:59:30.437Z,3.10
2018-08-13T06:01:58.767Z,2.93
2018-08-13T06:04:26.985Z,2.20
2018-08-13T06:06:55.239Z,2.40
2018-08-13T06:09:23.625Z,2.43
2018-08-13T06:11:52.359Z,3.10
2018-08-13T06:14:20.770Z,2.30
2018-08-13T06:16:48.959Z,2.40
2018-08-13T06:19:17.231Z,2.40
2018-08-13T06:21:45.474Z,2.20
2018-08-13T06:24:13.792Z,2.45
2018-08-13T06:26:42.034Z,2.27
2018-08-13T06:29:11.006Z,2.12
2018-08-13T06:31:39.253Z,2.67
2018-08-13T06:34:07.664Z,2.40
2018-08-13T06:36:35.934Z,2.65
2018-08-13T06:39:07.506Z,1.82
2018-08-13T06:41:35.794Z,2.02
2018-08-13T06:44:04.509Z,1.95
2018-08-13T06:46:32.859Z,2.47
2018-08-13T06:49:01.082Z,2.37
2018-08-13T06:51:29.344Z,2.00
2018-08-13T06:53:57.542Z,2.12
2018-08-13T06:56:26.446Z,2.27
2018-08-13T06:58:54.660Z,2.00
2018-08-13T07:01:22.895Z,2.20
2018-08-13T07:03:51.160Z,1.70
2018-08-13T07:06:19.806Z,1.92
2018-08-13T07:08:48.204Z,1.90
2018-08-13T07:11:16.492Z,2.10
2018-08-13T07:13:44.810Z,2.02
2018-08-13T07:16:13.044Z,2.10
2018-08-13T07:18:42.134Z,1.87
2018-08-13T07:21:10.440Z,1.95
2018-08-13T07:23:38.812Z,2.05
2018-08-13T07:26:07.209Z,2.25
2018-08-13T07:28:36.190Z,1.70
2018-08-13T07:31:04.806Z,2.00
2018-08-13T07:33:33.277Z,1.80
2018-08-13T07:36:01.585Z,1.67
2018-08-13T07:38:29.841Z,1.98
2018-08-13T07:40:58.402Z,1.60
2018-08-13T07:43:26.676Z,1.40
2018-08-13T07:45:54.905Z,1.75
2018-08-13T07:48:23.114Z,1.47
2018-08-13T07:50:51.307Z,1.92
2018-08-13T07:53:19.638Z,2.00
2018-08-13T07:55:47.861Z,2.00
2018-08-13T07:58:16.061Z,1.55
2018-08-13T08:00:44.333Z,1.98
2018-08-13T08:03:12.599Z,1.50
2018-08-13T08:05:41.085Z,1.45
2018-08-13T08:08:09.379Z,1.40
2018-08-13T08:10:37.841Z,1.90
2018-08-13T08:13:06.567Z,2.08
2018-08-13T08:15:34.884Z,1.67
2018-08-13T08:18:04.179Z,1.30
2018-08-13T08:20:32.575Z,1.27
2018-08-13T08:23:00.974Z,2.00
2018-08-13T08:25:30.220Z,1.70
2018-08-13T08:27:59.948Z,1.40
2018-08-13T08:30:28.242Z,1.42
2018-08-13T08:32:56.523Z,1.60
2018-08-13T08:35:25.032Z,1.47
2018-08-13T08:37:53.408Z,1.42
2018-08-13T08:40:21.663Z,1.47
2018-08-13T08:42:50.265Z,1.55
2018-08-13T08:45:22.894Z,1.30
2018-08-13T08:47:53.250Z,1.30
2018-08-13T08:50:22.620Z,1.20
2018-08-13T08:52:50.910Z,1.40
2018-08-13T08:55:19.358Z,1.22
2018-08-13T08:57:48.924Z,1.20
2018-08-13T09:00:20.844Z,1.70
2018-08-13T09:02:49.292Z,1.30
2018-08-13T09:05:17.580Z,1.12
2018-08-13T09:07:46.236Z,1.30
2018-08-13T09:10:14.661Z,1.25
2018-08-13T09:12:42.925Z,1.35
2018-08-13T09:15:14.513Z,1.55
2018-08-13T09:17:59.816Z,1.02
2018-08-13T09:20:45.233Z,1.30
2018-08-13T09:23:30.651Z,1.07
2018-08-13T09:26:16.139Z,0.90
2018-08-13T09:29:01.347Z,1.20
2018-08-13T09:32:11.410Z,0.95
2018-08-13T09:34:55.265Z,1.00
2018-08-13T09:37:23.635Z,1.10
2018-08-13T09:39:52.886Z,1.20
2018-08-13T09:42:21.705Z,1.10
2018-08-13T09:44:49.964Z,1.10
2018-08-13T09:47:18.234Z,1.30
2018-08-13T09:49:46.507Z,1.30
2018-08-13T09:52:14.725Z,1.30
2018-08-13T09:54:43.740Z,1.02
2018-08-13T09:57:12.644Z,1.15
2018-08-13T09:59:40.912Z,1.20
2018-08-13T10:02:09.127Z,1.10
2018-08-13T10:04:37.403Z,0.90
2018-08-13T10:07:06.105Z,1.20
2018-08-13T10:09:34.485Z,1.20
2018-08-13T10:12:03.474Z,1.20
2018-08-13T10:14:31.863Z,1.12
2018-08-13T10:17:00.072Z,0.90
2018-08-13T10:19:28.369Z,1.05
2018-08-13T10:21:56.593Z,1.22
2018-08-13T10:24:24.958Z,1.15
2018-08-13T10:26:53.159Z,1.32
2018-08-13T10:29:22.144Z,1.10
2018-08-13T10:31:50.326Z,1.20
2018-08-13T10:34:18.650Z,1.10
2018-08-13T10:36:47.231Z,1.00
2018-08-13T10:39:15.772Z,1.35
2018-08-13T10:41:45.075Z,1.17
2018-08-13T10:44:13.337Z,1.10
2018-08-13T10:46:41.611Z,1.30
2018-08-13T10:49:09.769Z,1.30
2018-08-13T10:51:37.992Z,1.20
2018-08-13T10:54:06.419Z,1.02
2018-08-13T10:56:34.687Z,1.17
2018-08-13T10:59:04.638Z,1.10
2018-08-13T11:01:32.908Z,1.30
2018-08-13T11:04:01.134Z,1.10
2018-08-13T11:06:29.472Z,1.27
2018-08-13T11:08:57.700Z,1.35
2018-08-13T11:11:26.866Z,1.00
2018-08-13T11:13:55.408Z,1.10
2018-08-13T11:16:23.679Z,1.10
2018-08-13T11:18:52.065Z,1.25
2018-08-13T11:21:20.269Z,1.32
2018-08-13T11:23:48.528Z,1.40
2018-08-13T11:26:17.802Z,1.12
2018-08-13T11:28:46.326Z,1.10
2018-08-13T11:31:14.566Z,1.20
2018-08-13T11:33:42.990Z,1.10
2018-08-13T11:36:11.505Z,1.10
2018-08-13T11:38:39.741Z,1.35
2018-08-13T11:41:08.201Z,1.30
2018-08-13T11:43:36.504Z,1.50
2018-08-13T11:46:04.797Z,1.15
2018-08-13T11:48:33.045Z,1.37
2018-08-13T11:51:01.887Z,1.35
2018-08-13T11:53:30.153Z,1.70
2018-08-13T11:55:58.481Z,1.60
2018-08-13T11:58:26.781Z,1.50
2018-08-13T12:00:55.220Z,1.80
2018-08-13T12:03:23.653Z,1.42
2018-08-13T12:05:51.921Z,2.10
2018-08-13T12:08:20.217Z,1.70
2018-08-13T12:10:48.447Z,2.08
2018-08-13T12:13:17.325Z,1.62
2018-08-13T12:15:45.712Z,1.55
2018-08-13T12:18:14.346Z,1.60
2018-08-13T12:20:42.685Z,1.85
2018-08-13T12:23:10.972Z,1.67
2018-08-13T12:25:39.610Z,1.77
2018-08-13T12:28:07.952Z,1.60
2018-08-13T12:30:36.472Z,1.52
2018-08-13T12:33:05.834Z,1.65
2018-08-13T12:35:34.091Z,1.70
2018-08-13T12:38:02.469Z,1.70
2018-08-13T12:40:30.974Z,1.42
2018-08-13T12:42:59.314Z,1.55
2018-08-13T12:45:28.051Z,1.50
2018-08-13T12:47:56.946Z,1.27
2018-08-13T12:50:25.185Z,1.80
2018-08-13T12:52:53.569Z,1.62
2018-08-13T12:55:22.011Z,1.70
2018-08-13T12:57:50.414Z,1.90
2018-08-13T13:00:19.046Z,1.70
2018-08-13T13:02:47.298Z,1.85
2018-08-13T13:05:16.545Z,1.70
2018-08-13T13:07:44.880Z,1.90
2018-08-13T13:10:14.549Z,1.60
2018-08-13T13:12:43.333Z,1.77
2018-08-13T13:15:17.194Z,1.52
2018-08-13T13:17:45.621Z,1.80
2018-08-13T13:20:19.594Z,1.55
2018-08-13T13:22:48.447Z,1.40
2018-08-13T13:25:17.147Z,1.77
2018-08-13T13:27:45.496Z,1.50
2018-08-13T13:30:15.255Z,1.55
2018-08-13T13:32:43.853Z,1.50
2018-08-13T13:35:14.518Z,1.60
2018-08-13T13:37:42.977Z,1.70
2018-08-13T13:40:13.525Z,2.00
2018-08-13T13:42:41.841Z,1.60
2018-08-13T13:45:10.912Z,1.62
2018-08-13T13:47:39.351Z,1.80
2018-08-13T13:50:11.746Z,1.63
2018-08-13T13:52:40.001Z,2.30
2018-08-13T13:55:08.289Z,1.67
2018-08-13T13:57:36.541Z,1.90
2018-08-13T14:00:17.318Z,1.63
2018-08-13T14:02:47.486Z,1.70
2018-08-13T14:05:15.826Z,1.90
2018-08-13T14:07:44.142Z,2.00
2018-08-13T14:10:19.506Z,1.83
2018-08-13T14:12:47.823Z,2.00
2018-08-13T14:15:20.521Z,1.70
2018-08-13T14:17:49.354Z,1.80
2018-08-13T14:20:18.411Z,1.83
2018-08-13T14:22:46.741Z,1.87
2018-08-13T14:25:15.596Z,1.97
2018-08-13T14:27:43.807Z,1.90
2018-08-13T14:30:28.182Z,1.70
2018-08-13T14:32:56.440Z,1.80
2018-08-13T14:35:24.989Z,1.90
2018-08-13T14:37:53.295Z,2.00
2018-08-13T14:40:21.574Z,2.10
2018-08-13T14:42:49.824Z,1.97
2018-08-13T14:45:18.859Z,1.93
2018-08-13T14:47:49.134Z,2.10
2018-08-13T14:50:17.361Z,2.00
2018-08-13T14:52:46.604Z,2.13
2018-08-13T14:55:19.869Z,2.10
2018-08-13T14:57:48.210Z,2.30
2018-08-13T15:00:20.964Z,2.60
2018-08-13T15:02:50.312Z,2.57
2018-08-13T15:05:18.608Z,2.47
2018-08-13T15:07:46.882Z,2.50
2018-08-13T15:10:20.258Z,2.40
2018-08-13T15:12:48.865Z,2.53
2018-08-13T15:15:17.274Z,2.23
2018-08-13T15:17:45.768Z,2.20
2018-08-13T15:20:20.163Z,2.40
2018-08-13T15:22:48.610Z,2.30
2018-08-13T15:25:17.116Z,2.50
2018-08-13T15:27:45.656Z,2.90
2018-08-13T15:30:15.828Z,5.40
2018-08-13T15:32:45.294Z,2.53
2018-08-13T15:35:14.253Z,2.37
2018-08-13T15:37:43.075Z,3.00
2018-08-13T15:40:11.596Z,2.27
2018-08-13T15:42:40.431Z,2.57
2018-08-13T15:45:12.315Z,2.20
2018-08-13T15:47:40.811Z,2.60
2018-08-13T15:50:11.185Z,2.00
2018-08-13T15:52:39.497Z,2.50
2018-08-13T15:55:08.316Z,2.57
2018-08-13T15:57:37.431Z,2.10
2018-08-13T16:00:07.693Z,2.20
2018-08-13T16:02:36.122Z,2.53
2018-08-13T16:05:06.715Z,2.67
2018-08-13T16:07:34.981Z,2.30
2018-08-13T16:10:05.469Z,2.23
2018-08-13T16:12:34.744Z,2.47
2018-08-13T16:15:03.084Z,2.33
2018-08-13T16:17:31.315Z,2.33
2018-08-13T16:19:59.691Z,2.50
2018-08-13T16:22:28.001Z,2.80
2018-08-13T16:24:56.324Z,2.27
2018-08-13T16:27:24.834Z,2.33
2018-08-13T16:29:53.157Z,2.30
2018-08-13T16:32:21.381Z,2.30
2018-08-13T16:34:49.594Z,2.00
2018-08-13T16:37:17.850Z,1.97
2018-08-13T16:39:46.097Z,1.70
2018-08-13T16:42:14.424Z,2.10
2018-08-13T16:44:42.627Z,1.80
2018-08-13T16:47:10.898Z,1.90
2018-08-13T16:49:39.146Z,2.10
2018-08-13T16:52:07.654Z,2.20
2018-08-13T16:54:36.249Z,1.83
2018-08-13T16:57:05.202Z,2.00
2018-08-13T16:59:33.503Z,1.53
2018-08-13T17:02:01.766Z,1.80
2018-08-13T17:04:30.244Z,1.67
2018-08-13T17:06:58.751Z,1.50
2018-08-13T17:09:27.022Z,1.83
2018-08-13T17:11:56.186Z,2.00
2018-08-13T17:14:24.600Z,1.80
2018-08-13T17:16:52.690Z,1.90
2018-08-13T17:19:21.019Z,1.90
2018-08-13T17:21:49.341Z,1.70
2018-08-13T17:24:17.572Z,1.60
2018-08-13T17:26:45.868Z,1.63
2018-08-13T17:29:14.183Z,1.50
2018-08-13T17:31:42.399Z,1.67
2018-08-13T17:34:11.083Z,1.80
2018-08-13T17:36:39.522Z,1.50
2018-08-13T17:39:15.077Z,1.90
2018-08-13T17:41:43.332Z,1.70
2018-08-13T17:44:12.635Z,2.00
2018-08-13T17:46:40.994Z,1.63
2018-08-13T17:49:09.338Z,1.90
2018-08-13T17:51:38.029Z,1.60
2018-08-13T17:54:06.624Z,1.50
2018-08-13T17:56:34.922Z,1.70
2018-08-13T17:59:03.321Z,1.87
2018-08-13T18:01:31.889Z,1.70
2018-08-13T18:04:00.104Z,1.80
2018-08-13T18:06:28.496Z,1.50
2018-08-13T18:08:57.650Z,1.90
2018-08-13T18:11:26.167Z,1.60
2018-08-13T18:13:54.615Z,1.70
2018-08-13T18:16:22.930Z,1.60
2018-08-13T18:18:51.855Z,1.60
2018-08-13T18:21:20.179Z,1.83
2018-08-13T18:23:48.572Z,1.90
2018-08-13T18:26:16.903Z,1.37
2018-08-13T18:28:45.216Z,1.40
2018-08-13T18:31:13.397Z,1.60
2018-08-13T18:33:41.673Z,1.43
2018-08-13T18:36:10.051Z,1.80
2018-08-13T18:38:38.516Z,1.30
2018-08-13T18:41:06.955Z,1.63
2018-08-13T18:43:35.331Z,1.60
2018-08-13T18:46:03.892Z,1.83
2018-08-13T18:48:32.175Z,1.80
2018-08-13T18:51:00.503Z,1.63
2018-08-13T18:53:28.792Z,2.00
2018-08-13T18:55:57.200Z,1.37
2018-08-13T18:58:25.466Z,1.50
2018-08-13T19:00:53.806Z,1.77
2018-08-13T19:03:22.304Z,1.80
2018-08-13T19:05:50.632Z,1.90
2018-08-13T19:08:18.973Z,1.93
2018-08-13T19:10:47.313Z,1.63
2018-08-13T19:13:15.847Z,1.70
2018-08-13T19:15:44.296Z,1.83
2018-08-13T19:18:12.717Z,1.90
2018-08-13T19:20:41.042Z,1.60
2018-08-13T19:23:09.413Z,1.70
2018-08-13T19:25:37.801Z,1.67
2018-08-13T19:28:06.715Z,2.00
2018-08-13T19:30:35.128Z,1.70
2018-08-13T19:33:03.540Z,1.70
2018-08-13T19:35:32.039Z,2.10
2018-08-13T19:38:01.235Z,2.30
2018-08-13T19:40:29.811Z,2.00
2018-08-13T19:42:59.135Z,1.70
2018-08-13T19:45:28.012Z,1.90
2018-08-13T19:47:56.641Z,2.00
2018-08-13T19:50:25.222Z,2.30
2018-08-13T19:52:53.599Z,2.10
2018-08-13T19:55:22.314Z,1.90
2018-08-13T19:57:51.148Z,2.40
2018-08-13T20:00:23.896Z,1.90
2018-08-13T20:02:53.049Z,1.97
2018-08-13T20:05:22.755Z,2.00
2018-08-13T20:07:51.516Z,2.00
2018-08-13T20:10:19.857Z,1.83
2018-08-13T20:12:48.371Z,2.00
2018-08-13T20:15:16.685Z,2.00
2018-08-13T20:17:45.257Z,1.87
2018-08-13T20:20:16.258Z,2.10
2018-08-13T20:22:45.421Z,2.67
2018-08-13T20:25:15.636Z,2.43
2018-08-13T20:27:44.453Z,1.90
2018-08-13T20:30:16.184Z,2.27
2018-08-13T20:32:45.732Z,2.00
2018-08-13T20:35:14.155Z,2.07
2018-08-13T20:37:42.575Z,2.10
2018-08-13T20:40:13.604Z,2.10
2018-08-13T20:42:42.360Z,2.17
2018-08-13T20:45:13.384Z,2.33
2018-08-13T20:47:42.022Z,2.50
2018-08-13T20:50:14.329Z,2.30
2018-08-13T20:52:43.178Z,2.37
2018-08-13T20:55:17.433Z,2.30
2018-08-13T20:57:47.161Z,2.20
2018-08-13T21:00:16.796Z,2.90
2018-08-13T21:02:46.153Z,2.10
2018-08-13T21:05:14.657Z,2.43
2018-08-13T21:07:43.458Z,2.60
2018-08-13T21:10:14.442Z,2.30
2018-08-13T21:12:42.681Z,2.13
2018-08-13T21:15:12.594Z,2.50
2018-08-13T21:17:40.986Z,2.80
2018-08-13T21:20:11.109Z,2.30
2018-08-13T21:22:39.336Z,2.40
2018-08-13T21:25:11.817Z,2.40
2018-08-13T21:27:42.947Z,2.30
2018-08-13T21:30:11.365Z,2.07
2018-08-13T21:32:40.769Z,2.10
2018-08-13T21:35:09.633Z,2.10
2018-08-13T21:37:38.170Z,1.93
2018-08-13T21:40:08.397Z,1.93
2018-08-13T21:42:36.691Z,2.20
2018-08-13T21:45:06.305Z,2.10
2018-08-13T21:47:34.707Z,2.20
2018-08-13T21:50:03.836Z,2.20
2018-08-13T21:52:32.090Z,2.10
2018-08-13T21:55:00.526Z,2.37
2018-08-13T21:57:28.817Z,1.77
2018-08-13T21:59:57.052Z,1.90
2018-08-13T22:02:26.305Z,2.27
2018-08-13T22:04:54.621Z,2.13
2018-08-13T22:07:22.822Z,2.03
2018-08-13T22:09:51.017Z,2.27
2018-08-13T22:12:20.682Z,2.20
2018-08-13T22:14:49.444Z,2.30
2018-08-13T22:17:17.980Z,2.20
2018-08-13T22:19:46.225Z,2.67
2018-08-13T22:22:15.380Z,1.90
2018-08-13T22:25:00.692Z,2.47
2018-08-13T22:27:29.180Z,2.00
2018-08-13T22:29:58.692Z,2.07
2018-08-13T22:32:27.641Z,2.07
2018-08-13T22:34:55.886Z,1.90
2018-08-13T22:37:24.239Z,2.10
2018-08-13T22:39:52.450Z,1.83
2018-08-13T22:42:21.149Z,2.13
2018-08-13T22:44:50.361Z,1.90
2018-08-13T22:47:19.054Z,2.33
2018-08-13T22:49:47.340Z,2.40
2018-08-13T22:52:15.827Z,2.13
2018-08-13T22:54:44.306Z,1.90
2018-08-13T22:57:12.650Z,1.90
2018-08-13T22:59:40.885Z,1.70
2018-08-13T23:02:09.317Z,1.90
2018-08-13T23:04:37.603Z,2.33
2018-08-13T23:07:06.322Z,2.00
2018-08-13T23:09:34.634Z,2.23
2018-08-13T23:12:05.912Z,2.40
2018-08-13T23:14:34.548Z,2.23
2018-08-13T23:17:03.005Z,1.90
2018-08-13T23:19:31.178Z,2.40
2018-08-13T23:21:59.943Z,1.77
2018-08-13T23:24:28.638Z,2.10
2018-08-13T23:26:57.288Z,2.20
2018-08-13T23:29:25.561Z,1.90
2018-08-13T23:31:53.799Z,2.20
2018-08-13T23:34:21.900Z,2.50
2018-08-13T23:36:50.121Z,2.40
2018-08-13T23:39:18.497Z,2.70
2018-08-13T23:41:46.831Z,2.23
2018-08-13T23:44:15.043Z,2.40
2018-08-13T23:46:43.251Z,2.50
2018-08-13T23:49:11.504Z,1.93
2018-08-13T23:51:39.745Z,2.10
2018-08-13T23:54:07.974Z,2.37
2018-08-13T23:56:36.339Z,2.47
2018-08-13T23:59:04.737Z,2.00
